Time;durP1;ratioP1;P1;durP2;ratioP2;P2;SDS_P1;SDS_P2;PMS_P1;PMS_P2;Temp;Humidity;BMP_temperature;BMP_pressure;BME280_temperature;BME280_humidity;BME280_pressure;Samples;Min_cycle;Max_cycle;Signal;HPM_P1;HPM_P2
2022/03/24 00:02:20;;;;;;;26.25;16.58;;;;;;;14.11;39.47;102895.09;5053711;28;20069;-59
2022/03/24 00:04:47;;;;;;;28.63;17.40;;;;;;;14.09;39.26;102883.63;5059811;28;20037;-57
2022/03/24 00:07:15;;;;;;;25.02;17.08;;;;;;;14.08;39.68;102890.91;5061443;28;20060;-57
2022/03/24 00:09:43;;;;;;;28.83;17.27;;;;;;;14.06;39.35;102892.97;5058640;28;20076;-58
2022/03/24 00:12:12;;;;;;;30.60;16.83;;;;;;;14.00;39.86;102875.66;5051798;28;20045;-57
2022/03/24 00:14:41;;;;;;;29.90;17.40;;;;;;;14.02;39.94;102889.81;5062078;28;20061;-57
2022/03/24 00:17:10;;;;;;;26.63;16.98;;;;;;;14.00;39.45;102886.47;5052186;28;20075;-59
2022/03/24 00:19:38;;;;;;;28.95;16.67;;;;;;;13.99;39.69;102897.47;5059127;28;20049;-59
2022/03/24 00:22:05;;;;;;;27.13;16.95;;;;;;;13.97;39.77;102888.72;5061366;28;20135;-59
2022/03/24 00:24:33;;;;;;;26.58;16.85;;;;;;;13.95;40.04;102891.63;5061917;28;20068;-59
2022/03/24 00:27:01;;;;;;;32.17;16.25;;;;;;;13.93;40.10;102892.84;5061941;28;20105;-58
2022/03/24 00:29:29;;;;;;;36.33;17.98;;;;;;;13.92;39.53;102885.78;5060076;28;20503;-58
2022/03/24 00:31:58;;;;;;;30.55;18.42;;;;;;;13.90;40.04;102888.66;5062988;28;20091;-58
2022/03/24 00:34:25;;;;;;;25.02;17.20;;;;;;;13.88;39.93;102879.91;5064224;28;20072;-58
2022/03/24 00:36:53;;;;;;;27.73;16.35;;;;;;;13.84;40.00;102878.66;5065607;28;20076;-58
2022/03/24 00:39:21;;;;;;;29.90;17.88;;;;;;;13.84;39.66;102880.53;5063861;28;20069;-58
2022/03/24 00:41:48;;;;;;;24.50;15.75;;;;;;;13.81;39.87;102872.81;5049634;28;20060;-58
2022/03/24 00:44:16;;;;;;;26.38;16.75;;;;;;;13.78;39.82;102874.03;5047806;28;20049;-57
2022/03/24 00:46:44;;;;;;;27.23;17.08;;;;;;;13.76;39.80;102869.84;5056727;28;20080;-58
2022/03/24 00:49:13;;;;;;;26.83;16.80;;;;;;;13.73;40.00;102875.63;5062792;28;20091;-57
2022/03/24 00:51:41;;;;;;;26.50;16.75;;;;;;;13.71;40.28;102875.00;5066248;28;20087;-56
2022/03/24 00:54:09;;;;;;;23.95;16.58;;;;;;;13.69;40.18;102883.28;5058126;28;20053;-58
2022/03/24 00:56:37;;;;;;;25.27;16.40;;;;;;;13.65;40.07;102873.91;5065091;28;20056;-57
2022/03/24 00:59:04;;;;;;;26.08;18.25;;;;;;;13.62;40.19;102875.13;5063659;28;20065;-57
2022/03/24 01:01:32;;;;;;;25.48;17.23;;;;;;;13.61;39.94;102872.63;5055851;28;20050;-57
2022/03/24 01:04:00;;;;;;;30.23;17.52;;;;;;;13.58;40.09;102873.00;5049396;28;20092;-58
2022/03/24 01:06:29;;;;;;;25.40;17.02;;;;;;;13.56;40.27;102872.34;5064718;28;20447;-59
2022/03/24 01:08:58;;;;;;;31.50;18.25;;;;;;;13.54;40.22;102871.72;5063204;28;20084;-58
2022/03/24 01:11:26;;;;;;;31.13;17.00;;;;;;;13.51;40.23;102869.38;5061915;28;20049;-57
2022/03/24 01:13:53;;;;;;;25.60;17.00;;;;;;;13.49;40.51;102866.88;5063747;28;20083;-58
2022/03/24 01:16:26;;;;;;;26.38;16.77;;;;;;;13.47;40.42;102870.81;5062099;28;20147;-58
2022/03/24 01:18:54;;;;;;;29.05;17.20;;;;;;;13.45;40.62;102859.34;5064597;28;20049;-58
2022/03/24 01:21:22;;;;;;;25.52;16.65;;;;;;;13.42;40.15;102859.72;5060772;28;20072;-59
2022/03/24 01:23:53;;;;;;;31.10;17.75;;;;;;;13.40;40.15;102854.53;5062065;28;20056;-57
2022/03/24 01:26:22;;;;;;;26.80;17.92;;;;;;;13.38;40.33;102866.53;5061257;28;20076;-56
2022/03/24 01:28:50;;;;;;;26.60;16.83;;;;;;;13.37;40.39;102863.00;5058357;28;20084;-57
2022/03/24 01:31:18;;;;;;;27.23;18.00;;;;;;;13.37;40.35;102854.06;5056825;28;20084;-57
2022/03/24 01:33:47;;;;;;;29.65;18.40;;;;;;;13.35;40.57;102859.66;5063156;28;20132;-58
2022/03/24 01:36:16;;;;;;;24.10;17.25;;;;;;;13.33;40.41;102856.31;5063124;28;20171;-58
2022/03/24 01:38:44;;;;;;;24.58;17.33;;;;;;;13.32;40.43;102851.94;5061104;28;20045;-57
2022/03/24 01:41:13;;;;;;;27.45;18.25;;;;;;;13.31;40.61;102836.75;5057832;28;20091;-58
2022/03/24 01:43:42;;;;;;;28.67;18.95;;;;;;;13.29;40.32;102841.53;5062629;28;20060;-57
2022/03/24 01:46:10;;;;;;;30.23;17.85;;;;;;;13.27;40.36;102840.88;5062729;28;20494;-59
2022/03/24 01:48:37;;;;;;;32.83;17.50;;;;;;;13.26;40.49;102848.13;5063747;28;20064;-58
2022/03/24 01:51:05;;;;;;;27.55;17.48;;;;;;;13.25;40.42;102838.38;5054431;28;20060;-58
2022/03/24 01:53:33;;;;;;;30.17;19.05;;;;;;;13.22;40.42;102837.91;5057157;28;20088;-57
2022/03/24 01:56:01;;;;;;;28.25;18.83;;;;;;;13.21;40.73;102836.25;5063122;28;20049;-57
2022/03/24 01:58:30;;;;;;;30.02;17.98;;;;;;;13.19;40.41;102827.50;5065366;28;20060;-58
2022/03/24 02:01:27;;;;;;;37.83;20.63;;;;;;;13.17;40.55;102833.09;5051215;28;20363;-58
2022/03/24 02:03:56;;;;;;;32.47;18.42;;;;;;;13.15;40.51;102831.56;5061326;28;20414;-59
2022/03/24 02:06:24;;;;;;;34.03;20.08;;;;;;;13.13;40.52;102829.06;5060575;28;20160;-56
2022/03/24 02:08:52;;;;;;;26.50;17.60;;;;;;;13.11;40.85;102819.47;5058283;28;20048;-57
2022/03/24 02:11:21;;;;;;;32.05;18.98;;;;;;;13.09;40.78;102827.75;5057554;28;20072;-57
2022/03/24 02:13:50;;;;;;;27.75;18.67;;;;;;;13.08;40.57;102819.84;5062132;28;20068;-59
2022/03/24 02:16:17;;;;;;;30.15;19.75;;;;;;;13.06;40.79;102822.75;5058475;28;20136;-59
2022/03/24 02:18:46;;;;;;;29.77;19.50;;;;;;;13.04;40.80;102827.50;5059991;28;20484;-58
2022/03/24 02:21:16;;;;;;;30.67;20.33;;;;;;;13.01;40.50;102823.31;5062053;28;20053;-58
2022/03/24 02:23:45;;;;;;;29.83;18.10;;;;;;;12.99;40.85;102825.38;5061509;28;20064;-57
2022/03/24 02:26:13;;;;;;;29.40;18.88;;;;;;;12.98;40.65;102826.41;5055457;28;20263;-59
2022/03/24 02:28:42;;;;;;;28.95;19.73;;;;;;;12.95;40.87;102823.22;5058389;28;20423;-57
2022/03/24 02:31:10;;;;;;;31.50;19.25;;;;;;;12.92;40.63;102826.31;5054812;28;20358;-58
2022/03/24 02:33:38;;;;;;;32.72;20.42;;;;;;;12.90;40.70;102825.66;5060397;28;20049;-58
2022/03/24 02:36:06;;;;;;;25.70;17.23;;;;;;;12.88;40.67;102822.31;5056038;28;20048;-58
2022/03/24 02:38:34;;;;;;;28.90;18.88;;;;;;;12.84;40.86;102818.31;5059399;28;20163;-58
2022/03/24 02:41:04;;;;;;;32.50;19.75;;;;;;;12.82;40.68;102826.59;5052555;28;20136;-58
2022/03/24 02:43:32;;;;;;;29.27;20.17;;;;;;;12.79;40.93;102826.97;5059063;28;20060;-58
2022/03/24 02:46:00;;;;;;;26.85;18.83;;;;;;;12.76;41.01;102824.66;5058560;28;20089;-58
2022/03/24 02:48:28;;;;;;;32.67;19.98;;;;;;;12.75;40.75;102822.16;5059508;28;20061;-58
2022/03/24 02:50:59;;;;;;;28.65;18.95;;;;;;;12.74;40.94;102831.25;5059302;28;20180;-57
2022/03/24 02:53:27;;;;;;;32.70;19.95;;;;;;;12.70;40.91;102825.41;5062401;28;20049;-58
2022/03/24 02:55:55;;;;;;;34.72;19.25;;;;;;;12.68;40.78;102827.47;5056117;28;20478;-58
2022/03/24 02:58:24;;;;;;;35.85;19.58;;;;;;;12.67;40.87;102828.47;5061726;28;20416;-57
2022/03/24 03:00:53;;;;;;;33.10;20.38;;;;;;;12.60;41.13;102819.47;5061674;28;20052;-58
2022/03/24 03:03:22;;;;;;;32.13;19.65;;;;;;;12.63;41.06;102822.63;5057158;28;20107;-57
2022/03/24 03:05:49;;;;;;;31.08;21.30;;;;;;;12.61;41.07;102834.63;5060926;28;20053;-58
2022/03/24 03:08:18;;;;;;;34.05;20.27;;;;;;;12.59;41.13;102831.28;5063762;28;20127;-58
2022/03/24 03:10:45;;;;;;;33.75;20.33;;;;;;;12.57;41.02;102831.47;5060730;28;20073;-58
2022/03/24 03:13:13;;;;;;;34.55;20.00;;;;;;;12.55;41.29;102825.41;5055588;28;20041;-57
2022/03/24 03:15:42;;;;;;;30.52;19.90;;;;;;;12.42;41.14;102805.53;5057532;28;20052;-58
2022/03/24 03:18:10;;;;;;;35.72;19.48;;;;;;;12.53;41.26;102826.63;5061400;28;20103;-57
2022/03/24 03:20:37;;;;;;;30.73;20.58;;;;;;;12.52;41.31;102831.19;5050279;28;20073;-58
2022/03/24 03:23:05;;;;;;;40.58;21.08;;;;;;;12.50;41.21;102824.31;5057320;28;20104;-58
2022/03/24 03:25:33;;;;;;;33.20;20.63;;;;;;;12.49;41.35;102831.56;5060820;28;20072;-57
2022/03/24 03:28:01;;;;;;;37.65;21.33;;;;;;;12.49;41.20;102833.41;5060188;28;20077;-57
2022/03/24 03:30:28;;;;;;;39.50;20.98;;;;;;;12.46;41.29;102829.22;5057509;28;20056;-57
2022/03/24 03:32:57;;;;;;;32.80;21.02;;;;;;;12.43;41.17;102820.66;5050859;28;20091;-57
2022/03/24 03:35:26;;;;;;;29.90;19.63;;;;;;;12.44;41.16;102823.19;5057528;28;20076;-56
2022/03/24 03:37:54;;;;;;;32.90;20.98;;;;;;;12.43;41.21;102834.16;5059964;28;20091;-58
2022/03/24 03:40:21;;;;;;;38.20;22.45;;;;;;;12.41;41.21;102828.94;5051973;28;20137;-58
2022/03/24 03:42:51;;;;;;;31.33;21.08;;;;;;;12.41;41.02;102833.50;5058404;28;20452;-58
2022/03/24 03:45:19;;;;;;;36.45;21.83;;;;;;;12.37;41.18;102833.88;5054342;28;20049;-58
2022/03/24 03:47:47;;;;;;;35.40;19.95;;;;;;;12.36;41.29;102836.75;5059656;28;20064;-57
2022/03/24 03:50:16;;;;;;;32.70;20.73;;;;;;;12.35;41.20;102832.38;5057885;28;20080;-57
2022/03/24 03:52:44;;;;;;;33.58;21.75;;;;;;;12.33;41.28;102837.97;5060718;28;20080;-57
2022/03/24 03:55:12;;;;;;;38.13;21.42;;;;;;;12.31;41.30;102834.63;5055902;28;20091;-58
2022/03/24 03:57:40;;;;;;;29.77;20.33;;;;;;;12.28;41.64;102831.44;5054871;28;20160;-58
2022/03/24 04:02:52;;;;;;;31.80;20.70;;;;;;;12.25;41.42;102837.22;5058637;28;20059;-58
2022/03/24 04:05:25;;;;;;;38.53;21.42;;;;;;;12.24;41.60;102833.69;5056106;28;20053;-58
2022/03/24 04:07:53;;;;;;;33.20;21.30;;;;;;;12.22;41.47;102835.72;5052467;28;20097;-57
2022/03/24 04:10:21;;;;;;;36.85;22.10;;;;;;;12.19;41.45;102829.84;5053047;28;20212;-58
2022/03/24 04:12:50;;;;;;;30.63;20.13;;;;;;;12.17;41.37;102840.00;5062500;28;20049;-57
2022/03/24 04:15:18;;;;;;;29.10;19.58;;;;;;;12.15;41.46;102836.63;5074305;28;20048;-57
2022/03/24 04:17:46;;;;;;;34.53;20.25;;;;;;;12.12;41.55;102831.66;5066712;28;20067;-58
2022/03/24 04:20:20;;;;;;;40.95;22.00;;;;;;;12.10;41.65;102834.53;5063606;28;20190;-58
2022/03/24 04:22:50;;;;;;;29.45;19.88;;;;;;;12.09;41.41;102840.09;5066460;28;20100;-58
2022/03/24 04:25:18;;;;;;;37.63;22.13;;;;;;;12.07;41.68;102837.59;5073576;28;20091;-58
2022/03/24 04:27:46;;;;;;;34.25;20.45;;;;;;;12.04;41.58;102832.56;5066926;28;20084;-58
2022/03/24 04:30:15;;;;;;;40.58;19.65;;;;;;;12.03;41.85;102836.28;5065854;28;20049;-58
2022/03/24 04:32:42;;;;;;;33.40;19.98;;;;;;;12.01;41.75;102838.31;5057493;28;20048;-59
2022/03/24 04:35:11;;;;;;;33.08;20.98;;;;;;;11.99;41.64;102829.56;5069093;28;20073;-59
2022/03/24 04:37:39;;;;;;;34.17;20.63;;;;;;;11.97;41.75;102834.31;5056716;28;20064;-58
2022/03/24 04:40:10;;;;;;;38.70;20.00;;;;;;;11.96;41.77;102838.03;5064803;28;20069;-58
2022/03/24 04:42:39;;;;;;;31.30;21.55;;;;;;;11.90;41.97;102826.13;5068157;28;20128;-58
2022/03/24 04:45:09;;;;;;;33.22;20.23;;;;;;;11.89;41.85;102827.13;5060954;28;20103;-58
2022/03/24 04:47:37;;;;;;;30.27;20.45;;;;;;;11.89;41.96;102831.69;5056282;28;20466;-59
2022/03/24 04:50:06;;;;;;;33.53;21.70;;;;;;;11.87;42.23;102833.72;5055638;28;20091;-58
2022/03/24 04:52:34;;;;;;;36.33;21.40;;;;;;;11.84;42.11;102829.53;5053954;28;20074;-57
2022/03/24 04:55:02;;;;;;;34.53;20.02;;;;;;;11.83;42.07;102833.25;5054424;28;20087;-57
2022/03/24 04:57:31;;;;;;;30.80;20.08;;;;;;;11.81;42.21;102829.06;5069134;28;20041;-57
2022/03/24 04:59:59;;;;;;;30.55;19.80;;;;;;;11.80;42.19;102828.22;5050542;28;20570;-57
2022/03/24 05:02:27;;;;;;;34.08;20.10;;;;;;;11.79;42.75;102831.09;5066304;28;20480;-58
2022/03/24 05:04:54;;;;;;;32.45;20.75;;;;;;;11.77;42.19;102825.91;5070809;28;20072;-58
2022/03/24 05:07:22;;;;;;;31.95;21.38;;;;;;;11.76;42.36;102832.28;5060284;28;20091;-58
2022/03/24 05:09:50;;;;;;;34.85;20.77;;;;;;;11.74;42.42;102837.84;5064630;28;20053;-58
2022/03/24 05:12:18;;;;;;;29.92;20.42;;;;;;;11.73;42.42;102836.16;5056123;28;20081;-58
2022/03/24 05:14:50;;;;;;;34.10;22.15;;;;;;;11.72;42.27;102829.09;5062460;28;20455;-58
2022/03/24 05:17:17;;;;;;;32.17;20.77;;;;;;;11.68;42.24;102824.25;5063299;28;20041;-58
2022/03/24 05:19:48;;;;;;;34.00;20.70;;;;;;;11.70;42.34;102831.13;5068317;28;20075;-59
2022/03/24 05:22:16;;;;;;;34.03;21.73;;;;;;;11.68;42.21;102841.25;5048495;28;20406;-58
2022/03/24 05:24:45;;;;;;;34.65;22.42;;;;;;;11.67;42.47;102842.28;5062591;28;20057;-57
2022/03/24 05:27:12;;;;;;;35.50;21.67;;;;;;;11.66;42.34;102843.28;5063952;28;20045;-58
2022/03/24 05:29:40;;;;;;;34.33;21.80;;;;;;;11.65;42.41;102848.84;5064086;28;20079;-58
2022/03/24 05:32:10;;;;;;;34.17;21.08;;;;;;;11.59;42.24;102842.34;5072555;28;20056;-57
2022/03/24 05:34:38;;;;;;;37.60;21.48;;;;;;;11.60;42.39;102844.00;5063012;28;20068;-58
2022/03/24 05:37:06;;;;;;;31.90;21.15;;;;;;;11.59;42.44;102846.88;5067351;28;20076;-58
2022/03/24 05:39:34;;;;;;;33.28;20.70;;;;;;;11.58;42.38;102840.66;5064951;28;20040;-57
2022/03/24 05:42:02;;;;;;;29.80;20.83;;;;;;;11.58;42.40;102845.19;5062428;28;20061;-57
2022/03/24 05:44:31;;;;;;;34.45;22.30;;;;;;;11.55;42.21;102854.47;5060540;28;20092;-58
2022/03/24 05:46:59;;;;;;;30.63;21.73;;;;;;;11.53;42.54;102848.44;5062156;28;20076;-58
2022/03/24 05:49:28;;;;;;;32.83;20.05;;;;;;;11.52;42.57;102846.75;5062849;28;20053;-58
2022/03/24 05:51:56;;;;;;;33.88;21.30;;;;;;;11.51;42.24;102852.31;5070812;28;20108;-58
2022/03/24 05:54:24;;;;;;;32.53;21.27;;;;;;;11.50;42.48;102856.88;5064202;28;20084;-59
2022/03/24 05:56:51;;;;;;;33.25;22.20;;;;;;;11.49;42.51;102857.06;5053901;28;20095;-59
2022/03/24 05:59:19;;;;;;;34.08;21.58;;;;;;;11.47;42.33;102856.38;5067679;28;20083;-59
2022/03/24 06:01:47;;;;;;;41.90;23.08;;;;;;;11.45;42.40;102859.25;5057812;28;20208;-59
2022/03/24 06:04:16;;;;;;;36.53;21.77;;;;;;;11.43;42.27;102860.44;5056376;28;20118;-58
2022/03/24 06:06:45;;;;;;;33.05;22.67;;;;;;;11.40;42.34;102864.34;5060830;28;20075;-58
2022/03/24 06:09:13;;;;;;;33.03;21.65;;;;;;;11.39;42.42;102866.19;5059303;28;20049;-59
2022/03/24 06:11:41;;;;;;;34.45;22.88;;;;;;;11.37;42.52;102862.84;5048239;28;20041;-57
2022/03/24 06:14:12;;;;;;;37.58;23.35;;;;;;;11.36;42.39;102863.03;5059201;28;20167;-57
2022/03/24 06:16:41;;;;;;;31.40;21.27;;;;;;;11.35;42.44;102867.56;5058732;28;20175;-58
2022/03/24 06:19:09;;;;;;;32.42;21.15;;;;;;;11.34;42.68;102865.06;5047285;28;20049;-57
2022/03/24 06:21:37;;;;;;;37.22;22.10;;;;;;;11.34;42.33;102873.13;5054411;28;20340;-58
2022/03/24 06:24:07;;;;;;;36.85;22.98;;;;;;;11.31;42.79;102868.94;5054325;28;20745;-58
2022/03/24 06:26:35;;;;;;;35.88;22.52;;;;;;;11.29;42.64;102870.97;5063943;28;20059;-58
2022/03/24 06:29:03;;;;;;;34.78;22.75;;;;;;;11.31;42.61;102865.41;5060474;28;20099;-59
2022/03/24 06:31:31;;;;;;;30.75;21.75;;;;;;;11.29;42.82;102873.66;5053806;28;20092;-58
2022/03/24 06:33:59;;;;;;;37.67;22.90;;;;;;;11.28;42.93;102868.44;5058270;28;20049;-58
2022/03/24 06:36:27;;;;;;;35.13;21.60;;;;;;;11.27;42.87;102872.16;5057622;28;20096;-58
2022/03/24 06:38:55;;;;;;;37.50;22.35;;;;;;;11.27;43.00;102872.16;5061557;28;20510;-59
2022/03/24 06:41:24;;;;;;;33.00;22.55;;;;;;;11.29;43.19;102872.81;5060646;28;20072;-59
2022/03/24 06:43:55;;;;;;;35.30;21.70;;;;;;;11.29;42.86;102870.97;5057020;28;20049;-60
2022/03/24 06:46:23;;;;;;;39.22;22.90;;;;;;;11.32;42.99;102877.84;4703448;28;10000264;-60
2022/03/24 06:48:51;;;;;;;37.90;22.95;;;;;;;11.32;43.02;102878.69;5059427;28;20128;-59
2022/03/24 06:51:19;;;;;;;38.45;22.60;;;;;;;11.34;42.84;102884.72;5060344;28;20083;-59
2022/03/24 06:53:47;;;;;;;35.03;22.20;;;;;;;11.38;43.04;102882.53;5059201;28;20077;-58
2022/03/24 06:56:14;;;;;;;36.42;23.30;;;;;;;11.39;43.22;102878.81;5057322;28;20564;-59
2022/03/24 06:58:50;;;;;;;34.30;22.80;;;;;;;11.39;43.15;102870.75;5055210;28;20049;-58
2022/03/24 07:01:18;;;;;;;31.90;21.40;;;;;;;11.43;43.26;102877.44;5057459;28;20095;-59
2022/03/24 07:03:47;;;;;;;35.38;21.80;;;;;;;11.45;43.15;102877.28;5055679;28;20049;-61
2022/03/24 07:06:15;;;;;;;35.33;23.17;;;;;;;11.48;43.06;102879.59;5058518;28;20053;-59
2022/03/24 07:08:42;;;;;;;40.25;24.17;;;;;;;11.34;42.90;102856.97;5054995;28;20044;-60
2022/03/24 07:11:10;;;;;;;36.45;23.50;;;;;;;11.50;42.98;102883.81;5054949;28;20049;-58
2022/03/24 07:13:38;;;;;;;38.03;22.65;;;;;;;11.51;42.78;102884.63;5048890;28;20112;-59
2022/03/24 07:16:10;;;;;;;37.72;22.73;;;;;;;11.51;42.81;102879.25;5054891;28;20045;-59
2022/03/24 07:18:38;;;;;;;37.05;23.48;;;;;;;11.50;43.20;102882.97;5059757;28;20166;-59
2022/03/24 07:21:06;;;;;;;39.15;24.48;;;;;;;11.46;43.14;102887.88;5062188;28;20045;-59
2022/03/24 07:23:34;;;;;;;37.70;23.60;;;;;;;11.47;43.30;102888.69;5064103;28;20116;-59
2022/03/24 07:26:02;;;;;;;38.45;23.95;;;;;;;11.46;43.24;102893.25;5060541;28;20052;-59
2022/03/24 07:28:30;;;;;;;38.60;23.65;;;;;;;11.46;43.37;102893.25;5063848;28;20041;-59
2022/03/24 07:30:57;;;;;;;49.47;26.13;;;;;;;11.54;42.89;102895.06;5063173;28;20053;-58
2022/03/24 07:33:27;;;;;;;41.60;23.60;;;;;;;11.60;42.72;102895.19;5059631;28;20103;-58
2022/03/24 07:35:55;;;;;;;40.85;24.67;;;;;;;11.62;42.51;102897.69;5063021;28;20063;-58
2022/03/24 07:38:23;;;;;;;41.72;24.98;;;;;;;11.67;42.40;102898.00;5060647;28;20051;-59
2022/03/24 07:40:54;;;;;;;38.42;23.73;;;;;;;11.69;42.23;102895.97;5062745;28;20080;-58
2022/03/24 07:43:22;;;;;;;36.67;21.95;;;;;;;11.69;42.25;102893.25;5057524;28;20458;-58
2022/03/24 07:45:51;;;;;;;34.17;22.63;;;;;;;11.68;42.41;102894.28;5056519;28;20454;-58
2022/03/24 07:48:25;;;;;;;37.50;23.42;;;;;;;11.69;42.39;102899.50;5062113;28;20048;-58
2022/03/24 07:50:56;;;;;;;39.85;24.52;;;;;;;11.68;42.36;102897.81;5056819;28;20052;-58
2022/03/24 07:53:52;;;;;;;38.38;22.10;;;;;;;11.68;42.42;102894.28;5062937;28;20053;-58
2022/03/24 07:56:24;;;;;;;39.85;24.00;;;;;;;11.58;42.28;102881.06;5062875;28;20049;-57
2022/03/24 07:58:52;;;;;;;37.15;21.73;;;;;;;11.62;42.19;102892.31;5057203;28;20040;-58
2022/03/24 08:01:26;;;;;;;35.80;22.00;;;;;;;11.64;42.35;102896.50;5063208;28;20076;-58
2022/03/24 08:03:55;;;;;;;40.90;23.45;;;;;;;11.65;42.51;102903.56;5063009;28;20052;-58
2022/03/24 08:06:24;;;;;;;32.60;22.13;;;;;;;11.65;42.67;102902.72;5063615;28;20060;-59
2022/03/24 08:08:52;;;;;;;35.58;22.73;;;;;;;11.64;42.38;102898.34;5049973;28;20069;-59
2022/03/24 08:11:22;;;;;;;34.00;22.60;;;;;;;11.65;42.56;102903.56;5056008;28;20049;-59
2022/03/24 08:13:53;;;;;;;33.83;20.85;;;;;;;11.65;42.53;102908.09;5053563;28;20548;-58
2022/03/24 08:16:21;;;;;;;33.25;22.30;;;;;;;11.64;42.52;102901.88;5062965;28;20053;-58
2022/03/24 08:18:49;;;;;;;43.85;23.70;;;;;;;11.65;42.50;102908.94;5051872;28;20075;-58
2022/03/24 08:21:17;;;;;;;37.97;22.23;;;;;;;11.63;42.36;102902.91;5062298;28;20084;-58
2022/03/24 08:23:46;;;;;;;35.42;23.98;;;;;;;11.65;42.40;102908.09;5055537;28;20076;-58
2022/03/24 08:26:14;;;;;;;33.28;22.77;;;;;;;11.69;42.60;102907.56;5062700;28;20115;-58
2022/03/24 08:28:42;;;;;;;42.35;23.40;;;;;;;11.73;42.32;102914.28;5062830;28;20052;-58
2022/03/24 08:31:10;;;;;;;38.35;23.40;;;;;;;11.76;42.32;102910.38;5059741;28;20083;-58
2022/03/24 08:33:38;;;;;;;36.80;22.60;;;;;;;11.78;42.27;102911.09;5063012;28;20057;-58
2022/03/24 08:36:07;;;;;;;35.95;23.55;;;;;;;11.82;42.20;102914.25;5063122;28;20049;-58
2022/03/24 08:38:35;;;;;;;40.70;23.27;;;;;;;11.81;42.43;102915.28;5057711;28;20072;-57
2022/03/24 08:41:04;;;;;;;30.38;20.85;;;;;;;11.83;42.50;102916.78;5060429;28;20522;-58
2022/03/24 08:43:31;;;;;;;37.28;22.08;;;;;;;11.90;42.37;102914.19;5054081;28;20056;-58
2022/03/24 08:46:06;;;;;;;33.80;20.90;;;;;;;11.99;42.31;102922.03;5061859;28;20052;-59
2022/03/24 08:48:34;;;;;;;34.38;21.48;;;;;;;12.03;42.16;102915.28;5057153;28;20083;-59
2022/03/24 08:51:02;;;;;;;36.90;20.92;;;;;;;12.06;42.38;102916.75;5065942;28;20053;-58
2022/03/24 08:53:30;;;;;;;36.08;20.20;;;;;;;12.09;42.30;102912.88;5064579;28;20168;-58
2022/03/24 08:55:58;;;;;;;33.42;20.83;;;;;;;12.11;42.36;102911.66;5065909;28;20060;-58
2022/03/24 08:58:27;;;;;;;33.22;20.35;;;;;;;12.11;42.44;102913.53;5067087;28;20085;-59
2022/03/24 09:00:55;;;;;;;32.65;20.33;;;;;;;12.12;42.49;102916.03;5057955;28;20243;-59
2022/03/24 09:03:23;;;;;;;33.63;20.10;;;;;;;12.11;42.63;102914.38;5065693;28;20053;-59
2022/03/24 09:05:51;;;;;;;35.35;20.80;;;;;;;12.10;42.63;102917.25;5062020;28;20080;-59
2022/03/24 09:08:19;;;;;;;31.55;20.73;;;;;;;12.11;42.55;102918.91;5066623;28;20057;-58
2022/03/24 09:10:50;;;;;;;31.88;19.73;;;;;;;12.11;42.50;102922.44;5065196;28;20108;-57
2022/03/24 09:13:18;;;;;;;30.80;20.27;;;;;;;12.12;41.79;102916.03;5066552;28;20450;-57
2022/03/24 09:15:48;;;;;;;31.52;21.92;;;;;;;12.14;42.19;102921.22;5062991;28;20049;-57
2022/03/24 09:18:16;;;;;;;33.83;21.70;;;;;;;12.13;41.98;102912.31;5066148;28;20053;-58
2022/03/24 09:20:43;;;;;;;33.03;20.42;;;;;;;12.15;42.10;102912.09;5064290;28;20088;-58
2022/03/24 09:23:11;;;;;;;37.67;21.67;;;;;;;12.18;41.91;102919.84;5066550;28;20061;-59
2022/03/24 09:25:39;;;;;;;33.05;21.52;;;;;;;12.18;42.16;102912.59;5059829;28;20068;-59
2022/03/24 09:28:07;;;;;;;34.60;20.80;;;;;;;12.21;41.78;102932.94;5066483;28;20064;-59
2022/03/24 09:30:36;;;;;;;32.03;19.70;;;;;;;12.22;41.42;102921.16;5066152;28;20074;-59
2022/03/24 09:33:05;;;;;;;32.05;19.77;;;;;;;12.24;41.29;102921.81;5064428;28;20498;-58
2022/03/24 09:35:34;;;;;;;29.90;20.73;;;;;;;12.25;41.20;102920.78;5056912;28;20065;-58
2022/03/24 09:38:02;;;;;;;29.50;18.60;;;;;;;12.25;40.18;102918.94;5060894;28;20048;-58
2022/03/24 09:40:30;;;;;;;30.70;18.95;;;;;;;12.25;40.63;102921.63;5056438;28;20116;-59
2022/03/24 09:43:00;;;;;;;28.20;18.08;;;;;;;12.28;40.48;102920.41;5064168;28;20048;-58
2022/03/24 09:45:28;;;;;;;28.48;18.42;;;;;;;12.27;39.19;102916.88;5061478;28;20644;-59
2022/03/24 09:47:56;;;;;;;27.77;17.85;;;;;;;12.26;39.93;102923.28;5063997;28;20059;-58
2022/03/24 09:50:25;;;;;;;28.60;18.27;;;;;;;12.30;39.03;102910.28;5054051;28;20120;-58
2022/03/24 09:52:53;;;;;;;27.88;17.85;;;;;;;12.31;39.26;102920.06;5065297;28;20144;-59
2022/03/24 09:55:21;;;;;;;30.25;18.73;;;;;;;12.32;39.81;102919.88;5061542;28;20049;-59
2022/03/24 09:57:49;;;;;;;23.45;17.33;;;;;;;12.33;39.74;102924.25;5064770;28;20057;-59
2022/03/24 10:00:37;;;;;;;25.30;16.60;;;;;;;12.34;39.05;102912.44;5065417;28;20466;-59
2022/03/24 10:03:09;;;;;;;29.08;17.77;;;;;;;12.35;38.90;102908.72;5062429;28;20478;-59
2022/03/24 10:05:55;;;;;;;23.70;16.50;;;;;;;12.39;38.58;102919.97;5065141;28;20059;-59
2022/03/24 10:08:23;;;;;;;27.25;15.65;;;;;;;12.43;38.87;102923.16;5058579;28;20082;-59
2022/03/24 10:10:51;;;;;;;23.98;16.10;;;;;;;12.45;39.09;102921.09;5064113;28;20080;-58
2022/03/24 10:13:25;;;;;;;28.20;16.52;;;;;;;12.48;38.96;102916.19;5065482;28;20080;-59
2022/03/24 10:15:53;;;;;;;22.25;16.08;;;;;;;12.52;38.13;102917.50;5060424;28;20061;-59
2022/03/24 10:18:27;;;;;;;23.77;15.60;;;;;;;12.53;36.89;102905.69;5060294;28;20075;-58
2022/03/24 10:20:56;;;;;;;21.98;16.02;;;;;;;12.57;35.85;102904.28;5064453;28;20068;-58
2022/03/24 10:23:24;;;;;;;24.13;16.00;;;;;;;12.62;36.53;102907.28;5062908;28;20061;-58
2022/03/24 10:25:52;;;;;;;25.55;15.73;;;;;;;12.65;37.33;102906.91;5058160;28;20072;-59
2022/03/24 10:28:21;;;;;;;21.00;14.02;;;;;;;12.70;37.20;102903.66;5057972;28;20049;-58
2022/03/24 10:30:50;;;;;;;21.45;14.57;;;;;;;12.75;38.38;102905.78;5063808;28;20049;-58
2022/03/24 10:33:32;;;;;;;22.60;15.35;;;;;;;12.79;37.63;102899.00;5061919;28;20053;-57
2022/03/24 10:36:10;;;;;;;20.08;14.70;;;;;;;12.82;37.29;102899.47;5062383;28;20595;-58
2022/03/24 10:38:40;;;;;;;23.58;14.88;;;;;;;12.87;37.46;102904.31;5062842;28;20045;-59
2022/03/24 10:41:18;;;;;;;23.42;13.82;;;;;;;12.92;37.17;102894.63;5061770;28;20091;-59
2022/03/24 10:43:47;;;;;;;20.20;14.00;;;;;;;12.94;38.63;102889.03;5062258;28;20045;-58
2022/03/24 10:46:18;;;;;;;18.70;13.32;;;;;;;13.02;38.18;102900.56;5063687;28;20052;-59
2022/03/24 10:48:48;;;;;;;18.92;12.23;;;;;;;13.09;40.04;102884.44;5057658;28;20065;-58
2022/03/24 10:51:24;;;;;;;24.05;14.45;;;;;;;13.17;39.84;102888.94;5061681;28;20148;-59
2022/03/24 10:53:54;;;;;;;18.10;13.77;;;;;;;13.23;39.12;102897.13;5063362;28;20045;-58
2022/03/24 10:56:28;;;;;;;19.60;13.75;;;;;;;13.28;39.62;102899.25;5062305;28;20048;-58
2022/03/24 10:58:59;;;;;;;16.75;12.38;;;;;;;13.32;39.39;102887.88;5064740;28;20052;-58
2022/03/24 11:01:29;;;;;;;18.30;13.25;;;;;;;13.38;39.45;102890.84;5063955;28;20571;-58
2022/03/24 11:03:57;;;;;;;18.95;12.52;;;;;;;13.43;39.56;102891.13;5063295;28;20148;-57
2022/03/24 11:06:27;;;;;;;19.60;13.25;;;;;;;13.46;39.18;102890.72;5062592;28;20052;-58
2022/03/24 11:08:56;;;;;;;20.65;13.50;;;;;;;13.50;39.12;102890.16;5063259;28;20075;-58
2022/03/24 11:11:24;;;;;;;21.75;13.45;;;;;;;13.54;37.48;102890.63;5063593;28;20073;-59
2022/03/24 11:13:53;;;;;;;19.92;13.43;;;;;;;13.57;36.67;102893.78;5061177;28;20075;-58
2022/03/24 11:16:24;;;;;;;18.58;13.13;;;;;;;13.46;34.45;102863.72;5061237;28;20088;-59
2022/03/24 11:18:53;;;;;;;22.33;13.48;;;;;;;13.60;35.14;102890.69;5053192;28;20392;-58
2022/03/24 11:21:25;;;;;;;17.02;11.85;;;;;;;13.62;34.45;102887.78;5062326;28;20087;-59